Pagrindinis puslapis
METAR-TAF:

METAR-TAF

Oro uostai :

Oslas, Norvegija

platuma: 60-12N, ilguma: 011-05E, Aukštis: 208 m

Dabartinis oras

Ataskaita buvo paskelbta 31 minutes, ne 06:50 UTC
Vėjas 4 kt iš Pietvakarių, svyruoja nuo Pietų ir Vakarų/Pietvakarių
Temperatūra 0°C
Drėgmė 86%
Slėgis 1011 hPa
Matomumas 10 km arba daugiau
nėra debesų žemiau 1500 m ir nėra kamuolinių lietaus debesų

METAR: ENGM 260650Z 22004KT 190V250 CAVOK M00/M02 Q1011 NOSIG

Laikas: 08:21 (07:21 UTC)

Prognozė

Prognozė galioja nuo 26 metu 06 UTC su 27 metu 06 UTC
Vėjas 8 kt iš Vakarų/Šiaurės Vakarų
Matomumas 10 km arba daugiau
Mažai debesys ne aukštis 1000 ft
Tikimybė 30% :
Laikinai
nuo 26 metu 10 UTC su 26 metu 15 UTC
Vėjas 15 kt iš Šiaurės Vakarų su gūsio iki 25 kt

TAF: ENGM 2606/2706 29008KT 9999 FEW010 PROB30 TEMPO 2610/2615 32015G25KT

Orai ataskaitas ir orų prognozės (METAR, TAF).

turimą stotys yra geltonos ir raudonos taškus žemėlapyje.

Perkelti pele per norėdami pamatyti stoties vardą.

Tada spustelėkite, norėdami matyti oro stebėjimo ir prognozės.

Norėdami pakeisti žemėlapį: spustelėkite ant žalios mygtukų su juodo kryžiaus žemyn,; žalią mygtuką su brūkšneliu, jei norite nutolinti; arba žalių rodyklių gretimoms žemėlapius.


METAR-TAF: